createdAt,value
2018-05-02T00:01:37.562Z,6.00
2018-05-02T00:04:04.986Z,6.10
2018-05-02T00:06:32.419Z,6.10
2018-05-02T00:09:00.093Z,6.20
2018-05-02T00:11:27.506Z,6.20
2018-05-02T00:13:54.922Z,6.20
2018-05-02T00:16:22.345Z,6.30
2018-05-02T00:18:49.766Z,6.40
2018-05-02T00:21:17.195Z,6.50
2018-05-02T00:23:44.607Z,6.50
2018-05-02T00:26:12.031Z,6.60
2018-05-02T00:28:39.502Z,6.60
2018-05-02T00:31:06.862Z,6.70
2018-05-02T00:33:34.286Z,6.70
2018-05-02T00:36:01.708Z,6.80
2018-05-02T00:38:29.126Z,6.80
2018-05-02T00:40:56.547Z,6.90
2018-05-02T00:43:23.975Z,6.90
2018-05-02T00:45:51.391Z,7.00
2018-05-02T00:48:18.854Z,7.00
2018-05-02T00:50:46.281Z,7.10
2018-05-02T00:53:13.711Z,7.10
2018-05-02T00:55:41.120Z,7.20
2018-05-02T00:58:08.533Z,7.20
2018-05-02T01:00:35.976Z,7.30
2018-05-02T01:03:03.399Z,7.30
2018-05-02T01:05:30.824Z,7.20
2018-05-02T01:07:58.264Z,7.20
2018-05-02T01:10:25.677Z,7.20
2018-05-02T01:12:53.094Z,7.30
2018-05-02T01:15:20.524Z,7.30
2018-05-02T01:17:47.934Z,7.30
2018-05-02T01:20:15.622Z,7.30
2018-05-02T01:22:43.038Z,7.30
2018-05-02T01:25:10.460Z,7.30
2018-05-02T01:27:37.898Z,7.30
2018-05-02T01:30:05.314Z,7.40
2018-05-02T01:32:32.734Z,7.40
2018-05-02T01:35:00.154Z,7.40
2018-05-02T01:37:28.330Z,7.40
2018-05-02T01:39:55.766Z,7.40
2018-05-02T01:42:23.195Z,7.40
2018-05-02T01:44:50.628Z,7.50
2018-05-02T01:47:18.043Z,7.50
2018-05-02T01:49:45.469Z,7.50
2018-05-02T01:52:12.883Z,7.50
2018-05-02T01:54:40.326Z,7.50
2018-05-02T01:57:07.755Z,7.50
2018-05-02T01:59:35.167Z,7.50
2018-05-02T02:02:02.590Z,7.50
2018-05-02T02:04:30.011Z,7.60
2018-05-02T02:06:57.430Z,7.60
2018-05-02T02:09:24.863Z,7.60
2018-05-02T02:11:52.277Z,7.60
2018-05-02T02:14:19.709Z,7.60
2018-05-02T02:16:47.149Z,7.60
2018-05-02T02:19:14.566Z,7.60
2018-05-02T02:21:41.994Z,7.60
2018-05-02T02:24:09.414Z,7.60
2018-05-02T02:26:36.840Z,7.60
2018-05-02T02:29:04.265Z,7.60
2018-05-02T02:31:31.687Z,7.60
2018-05-02T02:33:59.141Z,7.60
2018-05-02T02:36:26.530Z,7.60
2018-05-02T02:38:53.950Z,7.60
2018-05-02T02:41:21.369Z,7.60
2018-05-02T02:43:48.797Z,7.60
2018-05-02T02:46:16.234Z,7.60
2018-05-02T02:48:43.655Z,7.60
2018-05-02T02:51:11.078Z,7.70
2018-05-02T02:53:38.501Z,7.60
2018-05-02T02:56:05.948Z,7.70
2018-05-02T02:58:33.359Z,7.60
2018-05-02T03:01:00.774Z,7.60
2018-05-02T03:03:28.214Z,7.70
2018-05-02T03:05:55.625Z,7.70
2018-05-02T03:08:23.295Z,7.70
2018-05-02T03:10:50.744Z,7.70
2018-05-02T03:13:18.159Z,7.70
2018-05-02T03:15:45.595Z,7.70
2018-05-02T03:18:12.997Z,7.70
2018-05-02T03:20:40.418Z,7.70
2018-05-02T03:23:08.106Z,7.70
2018-05-02T03:25:35.530Z,7.70
2018-05-02T03:28:02.949Z,7.70
2018-05-02T03:30:30.369Z,7.70
2018-05-02T03:32:57.810Z,7.70
2018-05-02T03:35:25.238Z,7.80
2018-05-02T03:37:52.668Z,7.80
2018-05-02T03:40:20.085Z,7.80
2018-05-02T03:42:47.513Z,7.80
2018-05-02T03:45:14.943Z,7.90
2018-05-02T03:47:42.353Z,7.90
2018-05-02T03:50:09.773Z,7.90
2018-05-02T03:52:37.201Z,7.90
2018-05-02T03:55:04.630Z,7.90
2018-05-02T03:57:32.049Z,7.90
2018-05-02T04:00:11.141Z,7.90
2018-05-02T04:02:50.384Z,8.00
2018-05-02T04:05:29.569Z,8.00
2018-05-02T04:07:57.002Z,8.00
2018-05-02T04:10:24.434Z,8.00
2018-05-02T04:12:51.868Z,8.00
2018-05-02T04:15:19.294Z,7.90
2018-05-02T04:17:46.726Z,7.90
2018-05-02T04:20:14.144Z,7.90
2018-05-02T04:22:41.571Z,7.90
2018-05-02T04:25:09.002Z,7.90
2018-05-02T04:27:36.413Z,7.90
2018-05-02T04:30:03.842Z,7.90
2018-05-02T04:32:31.253Z,8.00
2018-05-02T04:34:58.690Z,8.00
2018-05-02T04:37:26.109Z,8.00
2018-05-02T04:39:53.533Z,8.00
2018-05-02T04:42:20.964Z,8.10
2018-05-02T04:44:48.385Z,8.10
2018-05-02T04:47:15.811Z,8.10
2018-05-02T04:49:43.234Z,8.10
2018-05-02T04:52:10.659Z,8.10
2018-05-02T04:54:38.081Z,8.20
2018-05-02T04:57:05.505Z,8.20
2018-05-02T04:59:33.718Z,8.40
2018-05-02T05:02:01.121Z,8.40
2018-05-02T05:04:29.358Z,8.40
2018-05-02T05:06:56.769Z,8.40
2018-05-02T05:09:24.194Z,8.40
2018-05-02T05:11:51.638Z,8.40
2018-05-02T05:14:19.069Z,8.50
2018-05-02T05:16:46.506Z,8.50
2018-05-02T05:19:13.935Z,8.60
2018-05-02T05:21:41.372Z,8.60
2018-05-02T05:24:08.782Z,8.70
2018-05-02T05:26:36.191Z,8.70
2018-05-02T05:29:03.630Z,8.80
2018-05-02T05:31:31.041Z,8.70
2018-05-02T05:33:58.458Z,8.80
2018-05-02T05:36:25.895Z,8.80
2018-05-02T05:38:53.322Z,8.80
2018-05-02T05:41:20.729Z,8.80
2018-05-02T05:43:48.164Z,8.90
2018-05-02T05:46:15.610Z,8.90
2018-05-02T05:48:43.034Z,8.90
2018-05-02T05:51:10.474Z,8.90
2018-05-02T05:53:37.895Z,8.90
2018-05-02T05:56:05.341Z,9.00
2018-05-02T05:58:32.776Z,9.00
2018-05-02T06:01:00.212Z,9.10
2018-05-02T06:03:27.639Z,9.10
2018-05-02T06:05:55.055Z,9.20
2018-05-02T06:08:22.477Z,9.20
2018-05-02T06:10:49.901Z,9.30
2018-05-02T06:13:17.329Z,9.30
2018-05-02T06:15:44.748Z,9.40
2018-05-02T06:18:12.183Z,9.40
2018-05-02T06:20:39.614Z,9.50
2018-05-02T06:23:07.071Z,9.60
2018-05-02T06:25:34.470Z,9.80
2018-05-02T06:28:01.914Z,9.90
2018-05-02T06:30:29.354Z,10.20
2018-05-02T06:32:56.766Z,10.30
2018-05-02T06:35:24.190Z,10.40
2018-05-02T06:37:51.786Z,10.60
2018-05-02T06:40:19.087Z,10.80
2018-05-02T06:42:46.530Z,11.00
2018-05-02T06:45:13.950Z,11.20
2018-05-02T06:47:41.386Z,11.20
2018-05-02T06:50:08.803Z,11.40
2018-05-02T06:52:36.243Z,11.50
2018-05-02T06:55:03.687Z,11.70
2018-05-02T06:57:31.107Z,11.90
2018-05-02T06:59:58.523Z,12.00
2018-05-02T07:02:25.949Z,12.20
2018-05-02T07:04:53.391Z,12.40
2018-05-02T07:07:20.822Z,12.60
2018-05-02T07:09:48.246Z,12.80
2018-05-02T07:12:15.706Z,13.00
2018-05-02T07:14:43.126Z,13.30
2018-05-02T07:17:10.538Z,13.30
2018-05-02T07:19:37.981Z,13.40
2018-05-02T07:22:05.402Z,13.40
2018-05-02T07:24:32.834Z,13.20
2018-05-02T07:27:00.270Z,13.10
2018-05-02T07:29:27.699Z,13.10
2018-05-02T07:31:55.119Z,13.10
2018-05-02T07:34:22.545Z,13.20
2018-05-02T07:36:49.978Z,13.20
2018-05-02T07:39:17.413Z,13.10
2018-05-02T07:41:44.834Z,13.10
2018-05-02T07:44:12.278Z,13.00
2018-05-02T07:46:39.698Z,13.10
2018-05-02T07:49:07.136Z,13.30
2018-05-02T07:51:34.562Z,13.40
2018-05-02T07:54:01.991Z,13.40
2018-05-02T07:56:29.443Z,13.60
2018-05-02T07:58:56.846Z,13.50
2018-05-02T08:01:24.285Z,13.40
2018-05-02T08:03:51.698Z,13.40
2018-05-02T08:06:19.142Z,13.40
2018-05-02T08:08:46.549Z,13.40
2018-05-02T08:11:13.988Z,13.50
2018-05-02T08:13:41.427Z,13.60
2018-05-02T08:16:08.883Z,13.70
2018-05-02T08:18:36.310Z,14.00
2018-05-02T08:21:03.746Z,14.30
2018-05-02T08:23:31.178Z,14.70
2018-05-02T08:25:58.623Z,15.00
2018-05-02T08:28:26.058Z,15.00
2018-05-02T08:30:53.504Z,15.20
2018-05-02T08:33:20.949Z,15.20
2018-05-02T08:35:48.374Z,15.20
2018-05-02T08:38:15.833Z,15.10
2018-05-02T08:40:43.297Z,15.00
2018-05-02T08:43:10.732Z,14.90
2018-05-02T08:45:38.522Z,14.90
2018-05-02T08:48:05.966Z,15.00
2018-05-02T08:50:33.434Z,15.00
2018-05-02T08:53:00.838Z,14.90
2018-05-02T08:55:29.027Z,14.70
2018-05-02T08:57:56.475Z,14.70
2018-05-02T09:00:23.907Z,14.70
2018-05-02T09:02:51.352Z,14.70
2018-05-02T09:05:18.774Z,14.60
2018-05-02T09:07:46.216Z,14.40
2018-05-02T09:10:13.650Z,14.30
2018-05-02T09:12:41.084Z,14.30
2018-05-02T09:15:08.519Z,14.40
2018-05-02T09:17:35.950Z,14.50
2018-05-02T09:20:03.390Z,14.80
2018-05-02T09:22:30.825Z,15.00
2018-05-02T09:24:58.269Z,15.20
2018-05-02T09:27:25.713Z,15.30
2018-05-02T09:29:53.139Z,15.40
2018-05-02T09:32:20.606Z,15.60
2018-05-02T09:34:48.013Z,15.80
2018-05-02T09:37:15.463Z,16.10
2018-05-02T09:39:42.917Z,16.30
2018-05-02T09:42:10.321Z,16.50
2018-05-02T09:44:37.738Z,16.70
2018-05-02T09:47:05.193Z,17.00
2018-05-02T09:49:32.622Z,17.50
2018-05-02T09:52:00.097Z,17.80
2018-05-02T09:54:27.495Z,18.30
2018-05-02T09:56:54.914Z,18.60
2018-05-02T09:59:22.362Z,18.60
2018-05-02T10:01:49.778Z,18.50
2018-05-02T10:04:17.202Z,18.30
2018-05-02T10:06:44.635Z,18.30
2018-05-02T10:09:12.068Z,18.10
2018-05-02T10:11:39.490Z,17.90
2018-05-02T10:14:06.926Z,17.70
2018-05-02T10:16:34.350Z,17.70
2018-05-02T10:19:01.783Z,17.90
2018-05-02T10:21:29.213Z,18.10
2018-05-02T10:23:56.692Z,18.50
2018-05-02T10:26:24.149Z,18.70
2018-05-02T10:28:51.574Z,18.60
2018-05-02T10:31:18.985Z,18.20
2018-05-02T10:33:46.407Z,18.10
2018-05-02T10:36:14.639Z,18.10
2018-05-02T10:38:42.054Z,18.10
2018-05-02T10:41:09.481Z,18.40
2018-05-02T10:43:36.917Z,18.70
2018-05-02T10:46:04.329Z,19.00
2018-05-02T10:48:31.770Z,19.50
2018-05-02T10:50:59.962Z,19.70
2018-05-02T10:53:27.399Z,19.70
2018-05-02T10:55:54.839Z,20.00
2018-05-02T10:58:22.257Z,20.20
2018-05-02T11:00:49.675Z,20.70
2018-05-02T11:03:17.111Z,21.40
2018-05-02T11:05:44.545Z,21.60
2018-05-02T11:08:11.990Z,21.80
2018-05-02T11:10:39.406Z,22.30
2018-05-02T11:13:06.842Z,22.60
2018-05-02T11:15:34.282Z,22.50
2018-05-02T11:18:01.737Z,22.60
2018-05-02T11:20:29.153Z,22.90
2018-05-02T11:22:56.594Z,23.00
2018-05-02T11:25:24.029Z,22.90
2018-05-02T11:27:51.473Z,22.80
2018-05-02T11:30:18.893Z,22.70
2018-05-02T11:32:46.329Z,22.50
2018-05-02T11:35:13.765Z,22.20
2018-05-02T11:37:41.224Z,22.10
2018-05-02T11:40:08.666Z,22.40
2018-05-02T11:42:36.081Z,23.10
2018-05-02T11:45:03.526Z,23.90
2018-05-02T11:47:30.949Z,24.30
2018-05-02T11:49:58.393Z,24.90
2018-05-02T11:52:25.813Z,24.80
2018-05-02T11:54:53.257Z,24.30
2018-05-02T11:57:20.674Z,23.90
2018-05-02T11:59:48.097Z,23.60
2018-05-02T12:02:15.535Z,23.70
2018-05-02T12:04:42.962Z,23.90
2018-05-02T12:07:10.405Z,23.90
2018-05-02T12:09:37.850Z,23.80
2018-05-02T12:12:05.281Z,23.50
2018-05-02T12:14:32.710Z,23.20
2018-05-02T12:17:00.145Z,22.70
2018-05-02T12:19:27.567Z,22.90
2018-05-02T12:21:55.058Z,23.70
2018-05-02T12:24:22.422Z,24.20
2018-05-02T12:26:49.853Z,24.50
2018-05-02T12:29:17.293Z,24.30
2018-05-02T12:31:44.718Z,23.90
2018-05-02T12:34:12.225Z,23.60
2018-05-02T12:36:39.643Z,23.60
2018-05-02T12:39:07.083Z,24.00
2018-05-02T12:41:34.502Z,24.50
2018-05-02T12:44:01.941Z,24.60
2018-05-02T12:46:29.362Z,24.60
2018-05-02T12:48:56.819Z,24.20
2018-05-02T12:51:24.246Z,23.90
2018-05-02T12:53:51.659Z,23.80
2018-05-02T12:56:19.220Z,23.90
2018-05-02T12:58:46.541Z,23.50
2018-05-02T13:01:14.727Z,22.70
2018-05-02T13:03:42.157Z,22.60
2018-05-02T13:06:09.581Z,22.60
2018-05-02T13:08:37.017Z,22.50
2018-05-02T13:11:04.454Z,22.20
2018-05-02T13:13:31.902Z,21.90
2018-05-02T13:15:59.318Z,21.70
2018-05-02T13:18:26.753Z,21.30
2018-05-02T13:20:54.194Z,21.10
2018-05-02T13:23:21.671Z,20.90
2018-05-02T13:25:49.084Z,20.70
2018-05-02T13:28:16.506Z,20.40
2018-05-02T13:30:43.931Z,20.30
2018-05-02T13:33:11.475Z,20.30
2018-05-02T13:35:39.632Z,20.30
2018-05-02T13:38:07.065Z,20.60
2018-05-02T13:40:34.486Z,20.90
2018-05-02T13:43:01.930Z,21.20
2018-05-02T13:45:29.335Z,21.60
2018-05-02T13:47:56.786Z,21.70
2018-05-02T13:50:24.220Z,21.80
2018-05-02T13:52:51.645Z,21.80
2018-05-02T13:55:19.082Z,21.80
2018-05-02T13:57:46.520Z,21.90
2018-05-02T14:00:13.946Z,21.80
2018-05-02T14:02:41.389Z,21.90
2018-05-02T14:05:08.862Z,21.80
2018-05-02T14:07:36.290Z,21.60
2018-05-02T14:10:04.502Z,21.10
2018-05-02T14:12:31.926Z,21.00
2018-05-02T14:14:59.353Z,21.00
2018-05-02T14:17:26.808Z,21.20
2018-05-02T14:19:54.233Z,21.70
2018-05-02T14:22:21.647Z,22.10
2018-05-02T14:24:49.138Z,22.20
2018-05-02T14:27:16.534Z,22.20
2018-05-02T14:29:43.983Z,22.00
2018-05-02T14:32:11.424Z,21.90
2018-05-02T14:34:38.843Z,21.80
2018-05-02T14:37:06.278Z,21.80
2018-05-02T14:39:33.724Z,21.60
2018-05-02T14:42:01.171Z,21.50
2018-05-02T14:44:28.605Z,21.30
2018-05-02T14:46:56.039Z,21.20
2018-05-02T14:49:23.453Z,21.10
2018-05-02T14:51:50.889Z,20.90
2018-05-02T14:54:18.333Z,20.90
2018-05-02T14:56:45.775Z,21.00
2018-05-02T14:59:13.281Z,21.10
2018-05-02T15:01:40.657Z,21.20
2018-05-02T15:04:08.095Z,21.20
2018-05-02T15:06:35.541Z,21.10
2018-05-02T15:09:02.983Z,21.00
2018-05-02T15:11:30.427Z,21.00
2018-05-02T15:13:57.854Z,20.80
2018-05-02T15:16:25.294Z,20.80
2018-05-02T15:18:52.719Z,20.60
2018-05-02T15:21:20.141Z,20.50
2018-05-02T15:23:47.570Z,20.40
2018-05-02T15:26:15.037Z,20.30
2018-05-02T15:28:42.458Z,20.00
2018-05-02T15:31:09.938Z,19.80
2018-05-02T15:33:38.145Z,19.60
2018-05-02T15:36:05.590Z,19.60
2018-05-02T15:38:33.051Z,19.50
2018-05-02T15:41:00.478Z,19.30
2018-05-02T15:43:27.915Z,19.10
2018-05-02T15:45:55.357Z,19.00
2018-05-02T15:48:22.791Z,18.90
2018-05-02T15:50:50.251Z,18.80
2018-05-02T15:53:17.674Z,18.80
2018-05-02T15:55:45.235Z,18.80
2018-05-02T15:58:12.735Z,18.70
2018-05-02T16:00:40.086Z,18.70
2018-05-02T16:03:07.518Z,18.80
2018-05-02T16:05:34.950Z,18.80
2018-05-02T16:08:02.394Z,18.70
2018-05-02T16:10:29.811Z,18.70
2018-05-02T16:12:57.482Z,18.70
2018-05-02T16:15:24.902Z,18.60
2018-05-02T16:17:52.323Z,18.50
2018-05-02T16:20:19.748Z,18.40
2018-05-02T16:22:47.166Z,18.50
2018-05-02T16:25:14.586Z,18.50
2018-05-02T16:27:42.097Z,18.50
2018-05-02T16:30:09.449Z,18.50
2018-05-02T16:32:36.949Z,18.50
2018-05-02T16:35:04.294Z,18.60
2018-05-02T16:37:31.763Z,18.60
2018-05-02T16:39:59.174Z,18.70
2018-05-02T16:42:26.642Z,18.70
2018-05-02T16:44:54.082Z,18.50
2018-05-02T16:47:21.493Z,18.40
2018-05-02T16:49:48.952Z,18.30
2018-05-02T16:52:16.377Z,18.20
2018-05-02T16:54:43.794Z,18.00
2018-05-02T16:57:11.234Z,17.90
2018-05-02T16:59:38.661Z,17.80
2018-05-02T17:02:06.118Z,17.70
2018-05-02T17:04:33.576Z,17.50
2018-05-02T17:07:00.970Z,17.40
2018-05-02T17:09:28.418Z,17.30
2018-05-02T17:11:55.837Z,17.20
2018-05-02T17:14:23.322Z,17.20
2018-05-02T17:16:50.787Z,17.20
2018-05-02T17:19:18.175Z,17.20
2018-05-02T17:21:45.604Z,17.20
2018-05-02T17:24:13.026Z,17.20
2018-05-02T17:26:40.478Z,17.10
2018-05-02T17:29:07.936Z,17.00
2018-05-02T17:31:35.367Z,16.90
2018-05-02T17:34:02.809Z,16.70
2018-05-02T17:36:30.246Z,16.60
2018-05-02T17:38:57.686Z,16.40
2018-05-02T17:41:25.126Z,16.20
2018-05-02T17:43:52.567Z,16.10
2018-05-02T17:46:20.038Z,16.00
2018-05-02T17:48:48.255Z,15.80
2018-05-02T17:51:15.743Z,15.80
2018-05-02T17:53:43.175Z,15.60
2018-05-02T17:56:10.614Z,15.50
2018-05-02T17:58:38.055Z,15.30
2018-05-02T18:01:05.483Z,15.10
2018-05-02T18:03:33.675Z,14.90
2018-05-02T18:06:01.191Z,14.70
2018-05-02T18:08:28.609Z,14.60
2018-05-02T18:10:56.043Z,14.40
2018-05-02T18:13:23.469Z,14.30
2018-05-02T18:15:50.895Z,14.20
2018-05-02T18:18:18.325Z,14.10
2018-05-02T18:20:45.745Z,14.00
2018-05-02T18:23:13.167Z,13.90
2018-05-02T18:25:40.596Z,13.90
2018-05-02T18:28:08.101Z,13.80
2018-05-02T18:30:35.467Z,13.80
2018-05-02T18:33:02.910Z,13.70
2018-05-02T18:35:30.331Z,13.60
2018-05-02T18:37:57.761Z,13.60
2018-05-02T18:40:25.186Z,13.50
2018-05-02T18:42:52.639Z,13.50
2018-05-02T18:45:20.059Z,13.40
2018-05-02T18:47:47.482Z,13.30
2018-05-02T18:50:14.913Z,13.30
2018-05-02T18:52:42.342Z,13.20
2018-05-02T18:55:09.772Z,13.10
2018-05-02T18:57:37.182Z,13.00
2018-05-02T19:00:05.598Z,13.00
2018-05-02T19:02:33.038Z,12.90
2018-05-02T19:05:00.466Z,12.80
2018-05-02T19:07:27.896Z,12.70
2018-05-02T19:09:55.346Z,12.70
2018-05-02T19:12:29.934Z,12.60
2018-05-02T19:14:57.372Z,12.50
2018-05-02T19:17:24.806Z,12.40
2018-05-02T19:19:58.103Z,12.40
2018-05-02T19:22:25.705Z,12.30
2018-05-02T19:24:58.891Z,12.30
2018-05-02T19:27:26.322Z,12.20
2018-05-02T19:29:53.825Z,12.20
2018-05-02T19:32:27.621Z,12.10
2018-05-02T19:34:55.054Z,12.00
2018-05-02T19:37:22.468Z,12.10
2018-05-02T19:39:55.478Z,12.00
2018-05-02T19:42:28.592Z,12.00
2018-05-02T19:44:56.034Z,12.00
2018-05-02T19:47:23.506Z,12.00
2018-05-02T19:49:50.921Z,11.90
2018-05-02T19:52:24.687Z,11.90
2018-05-02T19:54:52.109Z,11.90
2018-05-02T19:57:19.535Z,11.90
2018-05-02T19:59:46.993Z,12.00
2018-05-02T20:02:19.969Z,12.00
2018-05-02T20:04:47.418Z,12.00
2018-05-02T20:07:20.519Z,11.90
2018-05-02T20:09:53.680Z,12.00
2018-05-02T20:12:26.784Z,12.00
2018-05-02T20:14:54.209Z,12.00
2018-05-02T20:17:21.640Z,12.10
2018-05-02T20:19:49.098Z,12.10
2018-05-02T20:22:16.527Z,12.00
2018-05-02T20:24:43.970Z,12.00
2018-05-02T20:27:11.393Z,11.90
2018-05-02T20:29:38.809Z,11.90
2018-05-02T20:32:06.245Z,11.90
2018-05-02T20:34:33.682Z,11.90
2018-05-02T20:37:01.106Z,11.90
2018-05-02T20:39:28.525Z,11.90
2018-05-02T20:41:55.991Z,11.80
2018-05-02T20:44:23.409Z,11.80
2018-05-02T20:46:50.857Z,11.80
2018-05-02T20:49:18.334Z,11.70
2018-05-02T20:51:46.467Z,11.60
2018-05-02T20:54:13.891Z,11.60
2018-05-02T20:56:41.364Z,11.60
2018-05-02T20:59:08.816Z,11.60
2018-05-02T21:01:36.243Z,11.50
2018-05-02T21:04:03.683Z,11.40
2018-05-02T21:06:31.114Z,11.40
2018-05-02T21:08:58.537Z,11.40
2018-05-02T21:11:25.994Z,11.30
2018-05-02T21:13:53.409Z,11.30
2018-05-02T21:16:20.873Z,11.30
2018-05-02T21:18:48.808Z,11.20
2018-05-02T21:21:16.262Z,11.20
2018-05-02T21:23:43.697Z,11.10
2018-05-02T21:26:11.131Z,11.10
2018-05-02T21:28:39.381Z,11.10
2018-05-02T21:31:06.842Z,11.00
2018-05-02T21:33:34.306Z,11.00
2018-05-02T21:36:01.734Z,11.00
2018-05-02T21:38:29.165Z,11.00
2018-05-02T21:40:56.629Z,11.00
2018-05-02T21:43:24.053Z,10.90
2018-05-02T21:45:51.486Z,10.90
2018-05-02T21:48:18.917Z,10.90
2018-05-02T21:50:46.387Z,10.90
2018-05-02T21:53:13.833Z,10.80
2018-05-02T21:55:41.289Z,10.80
2018-05-02T21:58:08.734Z,10.80
2018-05-02T22:00:36.207Z,10.80
2018-05-02T22:03:04.474Z,10.70
2018-05-02T22:05:31.892Z,10.70
2018-05-02T22:07:59.317Z,10.70
2018-05-02T22:10:26.745Z,10.70
2018-05-02T22:12:54.935Z,10.70
2018-05-02T22:15:22.366Z,10.60
2018-05-02T22:17:49.782Z,10.70
2018-05-02T22:20:17.210Z,10.70
2018-05-02T22:22:44.638Z,10.70
2018-05-02T22:25:12.057Z,10.70
2018-05-02T22:27:39.495Z,10.60
2018-05-02T22:30:06.910Z,10.60
2018-05-02T22:32:34.361Z,10.60
2018-05-02T22:35:01.778Z,10.60
2018-05-02T22:37:29.210Z,10.60
2018-05-02T22:39:56.648Z,10.60
2018-05-02T22:42:24.070Z,10.50
2018-05-02T22:44:51.505Z,10.50
2018-05-02T22:47:18.942Z,10.40
2018-05-02T22:49:46.371Z,10.40
2018-05-02T22:52:13.785Z,10.40
2018-05-02T22:54:41.198Z,10.40
2018-05-02T22:57:08.622Z,10.30
2018-05-02T22:59:36.055Z,10.30
2018-05-02T23:02:03.486Z,10.30
2018-05-02T23:04:30.902Z,10.30
2018-05-02T23:06:58.340Z,10.40
2018-05-02T23:09:25.762Z,10.40
2018-05-02T23:11:53.194Z,10.40
2018-05-02T23:14:20.627Z,10.50
2018-05-02T23:16:48.054Z,10.50
2018-05-02T23:19:15.477Z,10.50
2018-05-02T23:21:42.893Z,10.50
2018-05-02T23:24:10.317Z,10.60
2018-05-02T23:26:37.741Z,10.60
2018-05-02T23:29:05.170Z,10.60
2018-05-02T23:31:32.595Z,10.60
2018-05-02T23:34:00.023Z,10.60
2018-05-02T23:36:27.442Z,10.60
2018-05-02T23:38:54.875Z,10.60
2018-05-02T23:41:22.616Z,10.60
2018-05-02T23:43:49.978Z,10.60
2018-05-02T23:46:17.409Z,10.60
2018-05-02T23:48:44.834Z,10.60
2018-05-02T23:51:12.249Z,10.60
2018-05-02T23:53:39.682Z,10.60
2018-05-02T23:56:07.102Z,10.60
2018-05-02T23:58:34.518Z,10.50
